createdAt,value
2023-03-16T00:00:45.400Z,1.94
2023-03-16T00:03:19.110Z,1.92
2023-03-16T00:05:47.712Z,1.85
2023-03-16T00:08:15.761Z,1.82
2023-03-16T00:10:46.756Z,1.74
2023-03-16T00:13:15.715Z,1.73
2023-03-16T00:15:50.427Z,1.73
2023-03-16T00:18:19.798Z,1.70
2023-03-16T00:20:51.843Z,1.65
2023-03-16T00:23:19.530Z,1.63
2023-03-16T00:25:47.272Z,1.62
2023-03-16T00:28:14.843Z,1.58
2023-03-16T00:30:47.413Z,1.54
2023-03-16T00:33:16.551Z,1.54
2023-03-16T00:35:50.344Z,1.46
2023-03-16T00:38:18.805Z,1.30
2023-03-16T00:40:47.257Z,1.27
2023-03-16T00:43:18.599Z,1.22
2023-03-16T00:45:46.685Z,1.18
2023-03-16T00:48:14.308Z,1.19
2023-03-16T00:50:43.395Z,1.11
2023-03-16T00:53:12.317Z,1.13
2023-03-16T00:55:40.321Z,1.11
2023-03-16T00:58:08.144Z,1.10
2023-03-16T01:00:36.535Z,1.09
2023-03-16T01:03:04.380Z,1.08
2023-03-16T01:05:33.500Z,1.08
2023-03-16T01:08:02.673Z,1.07
2023-03-16T01:10:31.906Z,1.05
2023-03-16T01:12:59.623Z,1.04
2023-03-16T01:15:27.389Z,1.02
2023-03-16T01:17:55.393Z,0.98
2023-03-16T01:20:23.621Z,0.97
2023-03-16T01:22:51.307Z,0.95
2023-03-16T01:25:19.350Z,0.93
2023-03-16T01:27:48.434Z,0.90
2023-03-16T01:30:16.458Z,0.86
2023-03-16T01:32:44.271Z,0.85
2023-03-16T01:35:14.680Z,0.82
2023-03-16T01:37:42.449Z,0.84
2023-03-16T01:40:16.204Z,0.83
2023-03-16T01:42:50.229Z,0.81
2023-03-16T01:46:14.378Z,0.80
2023-03-16T01:48:51.664Z,0.75
2023-03-16T01:51:26.806Z,0.76
2023-03-16T01:53:58.803Z,0.74
2023-03-16T01:56:30.743Z,0.74
2023-03-16T01:59:03.050Z,0.75
2023-03-16T02:01:30.829Z,0.72
2023-03-16T02:04:08.674Z,0.64
2023-03-16T02:06:38.694Z,0.56
2023-03-16T02:09:07.266Z,0.55
2023-03-16T02:11:36.525Z,0.55
2023-03-16T02:14:15.103Z,0.54
2023-03-16T02:16:44.897Z,0.54
2023-03-16T02:19:21.754Z,0.52
2023-03-16T02:21:55.210Z,0.45
2023-03-16T02:24:23.396Z,0.36
2023-03-16T02:26:55.919Z,0.30
2023-03-16T02:29:52.788Z,0.30
2023-03-16T02:32:24.536Z,0.32
2023-03-16T02:34:52.801Z,0.34
2023-03-16T02:37:21.878Z,0.31
2023-03-16T02:39:50.106Z,0.29
2023-03-16T02:42:22.750Z,0.28
2023-03-16T02:44:55.822Z,0.27
2023-03-16T02:47:35.717Z,0.15
2023-03-16T02:50:06.616Z,0.11
2023-03-16T02:52:35.262Z,-0.09
2023-03-16T02:55:03.360Z,-0.06
2023-03-16T02:57:31.780Z,-0.03
2023-03-16T03:00:11.527Z,0.01
2023-03-16T03:02:41.860Z,0.02
2023-03-16T03:05:09.672Z,0.01
2023-03-16T03:07:38.081Z,0.04
2023-03-16T03:10:08.793Z,0.07
2023-03-16T03:12:36.564Z,0.08
2023-03-16T03:15:09.169Z,0.09
2023-03-16T03:17:48.286Z,0.05
2023-03-16T03:20:17.689Z,0.01
2023-03-16T03:22:47.453Z,0.00
2023-03-16T03:25:18.370Z,-0.01
2023-03-16T03:27:47.885Z,-0.04
2023-03-16T03:30:20.387Z,-0.04
2023-03-16T03:32:50.423Z,-0.10
2023-03-16T03:35:19.581Z,-0.11
2023-03-16T03:37:47.196Z,-0.11
2023-03-16T03:40:18.319Z,-0.12
2023-03-16T03:42:49.576Z,-0.13
2023-03-16T03:45:17.487Z,-0.13
2023-03-16T03:47:45.852Z,-0.14
2023-03-16T03:50:21.031Z,-0.15
2023-03-16T03:52:57.013Z,-0.17
2023-03-16T03:55:24.915Z,-0.17
2023-03-16T03:57:52.647Z,-0.15
2023-03-16T04:00:21.940Z,-0.16
2023-03-16T04:02:50.316Z,-0.15
2023-03-16T04:05:33.434Z,-0.15
2023-03-16T04:08:01.071Z,-0.15
2023-03-16T04:10:31.196Z,-0.15
2023-03-16T04:13:01.383Z,-0.11
2023-03-16T04:15:33.899Z,-0.14
2023-03-16T04:18:13.000Z,-0.16
2023-03-16T04:20:43.100Z,-0.14
2023-03-16T04:23:16.700Z,-0.16
2023-03-16T04:25:45.415Z,-0.17
2023-03-16T04:28:17.934Z,-0.21
2023-03-16T04:30:48.159Z,-0.21
2023-03-16T04:33:24.557Z,-0.29
2023-03-16T04:35:53.672Z,-0.25
2023-03-16T04:38:23.486Z,-0.25
2023-03-16T04:40:55.884Z,-0.25
2023-03-16T04:43:27.965Z,-0.24
2023-03-16T04:46:01.368Z,-0.25
2023-03-16T04:48:32.471Z,-0.29
2023-03-16T04:51:03.807Z,-0.28
2023-03-16T04:53:34.052Z,-0.34
2023-03-16T04:56:09.391Z,-0.46
2023-03-16T04:58:37.616Z,-0.38
2023-03-16T05:01:07.784Z,-0.39
2023-03-16T05:03:35.884Z,-0.39
2023-03-16T05:06:06.124Z,-0.38
2023-03-16T05:08:35.911Z,-0.39
2023-03-16T05:11:03.648Z,-0.40
2023-03-16T05:13:36.460Z,-0.43
2023-03-16T05:16:05.687Z,-0.41
2023-03-16T05:18:38.039Z,-0.43
2023-03-16T05:21:07.480Z,-0.40
2023-03-16T05:23:48.585Z,-0.40
2023-03-16T05:26:16.227Z,-0.36
2023-03-16T05:28:44.590Z,-0.33
2023-03-16T05:31:16.500Z,-0.33
2023-03-16T05:33:50.437Z,-0.31
2023-03-16T05:36:22.125Z,-0.29
2023-03-16T05:38:53.765Z,-0.37
2023-03-16T05:41:30.103Z,-0.32
2023-03-16T05:44:05.031Z,-0.24
2023-03-16T05:46:47.402Z,-0.19
2023-03-16T05:49:16.159Z,-0.14
2023-03-16T05:51:45.362Z,-0.09
2023-03-16T05:54:14.020Z,-0.05
2023-03-16T05:56:46.622Z,-0.02
2023-03-16T05:59:17.874Z,0.02
2023-03-16T06:01:50.550Z,0.06
2023-03-16T06:04:20.242Z,0.09
2023-03-16T06:06:49.243Z,0.12
2023-03-16T06:09:21.555Z,0.15
2023-03-16T06:11:49.437Z,0.16
2023-03-16T06:14:18.589Z,0.20
2023-03-16T06:16:47.112Z,0.26
2023-03-16T06:19:16.366Z,0.31
2023-03-16T06:21:45.535Z,0.38
2023-03-16T06:24:14.808Z,0.40
2023-03-16T06:26:42.620Z,0.45
2023-03-16T06:29:13.626Z,0.46
2023-03-16T06:31:42.513Z,0.51
2023-03-16T06:34:11.561Z,0.52
2023-03-16T06:36:40.073Z,0.55
2023-03-16T06:39:12.144Z,0.62
2023-03-16T06:41:48.185Z,0.71
2023-03-16T06:44:17.662Z,0.77
2023-03-16T06:46:57.908Z,0.85
2023-03-16T06:49:25.576Z,0.94
2023-03-16T06:51:53.851Z,1.04
2023-03-16T06:54:22.328Z,1.22
2023-03-16T06:56:52.268Z,1.40
2023-03-16T06:59:20.008Z,1.61
2023-03-16T07:01:47.919Z,1.84
2023-03-16T07:04:15.609Z,2.05
2023-03-16T07:06:43.390Z,2.22
2023-03-16T07:09:13.011Z,2.41
2023-03-16T07:11:41.342Z,2.59
2023-03-16T07:14:10.299Z,2.73
2023-03-16T07:16:38.640Z,2.88
2023-03-16T07:19:08.119Z,2.99
2023-03-16T07:21:39.973Z,3.07
2023-03-16T07:24:12.803Z,3.20
2023-03-16T07:26:43.116Z,3.35
2023-03-16T07:29:13.896Z,3.43
2023-03-16T07:31:41.897Z,3.51
2023-03-16T07:34:15.665Z,3.56
2023-03-16T07:36:49.615Z,3.75
2023-03-16T07:39:17.745Z,3.87
2023-03-16T07:41:46.464Z,3.97
2023-03-16T07:44:17.994Z,4.08
2023-03-16T07:46:49.369Z,4.22
2023-03-16T07:49:17.753Z,4.35
2023-03-16T07:51:49.013Z,4.40
2023-03-16T07:54:20.219Z,4.52
2023-03-16T07:56:49.790Z,4.57
2023-03-16T07:59:42.549Z,4.72
2023-03-16T08:02:14.582Z,4.73
2023-03-16T08:04:43.756Z,4.93
2023-03-16T08:07:14.367Z,5.03
2023-03-16T08:09:51.873Z,5.14
2023-03-16T08:12:24.937Z,5.31
2023-03-16T08:14:54.554Z,5.51
2023-03-16T08:17:29.259Z,5.65
2023-03-16T08:19:59.836Z,5.77
2023-03-16T08:22:28.113Z,5.93
2023-03-16T08:24:55.857Z,6.17
2023-03-16T08:27:23.721Z,6.28
2023-03-16T08:30:02.210Z,6.53
2023-03-16T08:32:30.786Z,6.69
2023-03-16T08:34:58.851Z,6.74
2023-03-16T08:37:27.421Z,6.90
2023-03-16T08:39:56.317Z,6.99
2023-03-16T08:42:25.426Z,7.01
2023-03-16T08:45:00.875Z,7.24
2023-03-16T08:47:30.952Z,7.40
2023-03-16T08:50:00.195Z,7.73
2023-03-16T08:52:28.358Z,7.83
2023-03-16T08:55:03.385Z,8.00
2023-03-16T08:57:32.729Z,8.21
2023-03-16T09:00:08.854Z,8.35
2023-03-16T09:02:38.791Z,8.41
2023-03-16T09:05:08.400Z,8.57
2023-03-16T09:07:36.332Z,8.71
2023-03-16T09:10:05.595Z,8.74
2023-03-16T09:12:35.842Z,9.06
2023-03-16T09:15:05.763Z,9.05
2023-03-16T09:17:33.460Z,9.17
2023-03-16T09:20:19.369Z,9.21
2023-03-16T09:22:49.663Z,9.12
2023-03-16T09:25:17.605Z,9.30
2023-03-16T09:27:45.358Z,9.65
2023-03-16T09:30:16.807Z,9.79
2023-03-16T09:32:44.855Z,10.00
2023-03-16T09:35:13.157Z,10.23
2023-03-16T09:37:45.397Z,10.47
2023-03-16T09:40:24.764Z,10.79
2023-03-16T09:43:05.934Z,11.05
2023-03-16T09:45:40.148Z,11.57
2023-03-16T09:48:12.090Z,11.58
2023-03-16T09:50:48.904Z,11.77
2023-03-16T09:53:24.919Z,11.74
2023-03-16T09:55:58.996Z,12.10
2023-03-16T09:58:27.258Z,12.65
2023-03-16T10:01:09.679Z,12.77
2023-03-16T10:03:57.285Z,13.12
2023-03-16T10:06:26.480Z,13.52
2023-03-16T10:09:02.516Z,13.52
2023-03-16T10:11:32.873Z,13.54
2023-03-16T10:14:09.935Z,13.52
2023-03-16T10:16:42.853Z,13.46
2023-03-16T10:19:17.232Z,13.37
2023-03-16T10:21:44.946Z,13.29
2023-03-16T10:24:25.478Z,13.37
2023-03-16T10:27:00.035Z,13.67
2023-03-16T10:29:38.808Z,13.62
2023-03-16T10:32:14.558Z,14.06
2023-03-16T10:34:43.750Z,14.20
2023-03-16T10:37:14.594Z,14.49
2023-03-16T10:39:43.945Z,14.21
2023-03-16T10:42:17.465Z,14.35
2023-03-16T10:44:46.167Z,14.86
2023-03-16T10:47:22.861Z,14.69
2023-03-16T10:49:51.967Z,15.10
2023-03-16T10:52:24.783Z,14.80
2023-03-16T10:54:55.814Z,15.05
2023-03-16T10:57:31.160Z,14.77
2023-03-16T11:00:16.383Z,15.05
2023-03-16T11:02:45.739Z,14.93
2023-03-16T11:05:16.070Z,15.21
2023-03-16T11:07:50.276Z,15.69
2023-03-16T11:10:30.022Z,15.68
2023-03-16T11:13:03.737Z,15.82
2023-03-16T11:15:38.544Z,15.50
2023-03-16T11:18:13.754Z,15.94
2023-03-16T11:20:41.892Z,15.82
2023-03-16T11:23:18.200Z,15.25
2023-03-16T11:25:51.920Z,15.36
2023-03-16T11:28:31.718Z,15.35
2023-03-16T11:31:11.174Z,15.16
2023-03-16T11:33:40.392Z,15.01
2023-03-16T11:36:21.695Z,14.76
2023-03-16T11:39:00.739Z,15.05
2023-03-16T11:41:38.732Z,14.97
2023-03-16T11:44:15.707Z,15.40
2023-03-16T11:46:52.840Z,15.29
2023-03-16T11:49:37.320Z,15.54
2023-03-16T11:52:12.822Z,15.47
2023-03-16T11:54:51.294Z,15.13
2023-03-16T11:57:32.698Z,15.18
2023-03-16T12:00:14.995Z,14.87
2023-03-16T12:02:55.994Z,14.86
2023-03-16T12:05:46.069Z,14.67
2023-03-16T12:08:26.441Z,14.85
2023-03-16T12:10:59.182Z,14.58
2023-03-16T12:13:49.508Z,14.54
2023-03-16T12:16:22.665Z,14.03
2023-03-16T12:18:54.952Z,14.07
2023-03-16T12:21:31.500Z,13.90
2023-03-16T12:24:03.380Z,13.90
2023-03-16T12:26:34.796Z,14.24
2023-03-16T12:29:10.473Z,14.22
2023-03-16T12:31:45.915Z,14.15
2023-03-16T12:34:24.428Z,14.32
2023-03-16T12:37:02.605Z,14.58
2023-03-16T12:39:54.877Z,14.63
2023-03-16T12:42:37.334Z,14.73
2023-03-16T12:45:12.411Z,14.48
2023-03-16T12:47:50.439Z,14.89
2023-03-16T12:50:20.746Z,15.12
2023-03-16T12:52:51.799Z,15.21
2023-03-16T12:55:21.508Z,14.88
2023-03-16T12:57:52.121Z,15.05
2023-03-16T13:00:21.614Z,14.83
2023-03-16T13:02:55.562Z,14.71
2023-03-16T13:05:32.119Z,14.57
2023-03-16T13:08:10.918Z,14.88
2023-03-16T13:10:39.361Z,14.98
2023-03-16T13:13:12.920Z,15.01
2023-03-16T13:15:47.212Z,15.08
2023-03-16T13:18:25.573Z,14.98
2023-03-16T13:20:57.204Z,14.95
2023-03-16T13:23:30.024Z,14.88
2023-03-16T13:26:16.209Z,14.61
2023-03-16T13:28:47.178Z,14.50
2023-03-16T13:31:25.483Z,14.33
2023-03-16T13:33:55.640Z,14.41
2023-03-16T13:36:24.250Z,14.24
2023-03-16T13:39:06.755Z,14.06
2023-03-16T13:41:34.414Z,13.77
2023-03-16T13:44:02.142Z,13.58
2023-03-16T13:46:31.145Z,13.49
2023-03-16T13:49:00.821Z,13.42
2023-03-16T13:51:31.400Z,13.38
2023-03-16T13:54:09.080Z,13.36
2023-03-16T13:56:39.694Z,13.36
2023-03-16T13:59:10.708Z,13.40
2023-03-16T14:01:38.436Z,13.15
2023-03-16T14:04:15.978Z,13.06
2023-03-16T14:06:54.963Z,12.97
2023-03-16T14:09:28.806Z,12.93
2023-03-16T14:11:57.742Z,13.06
2023-03-16T14:14:29.009Z,13.08
2023-03-16T14:17:05.202Z,13.23
2023-03-16T14:19:42.446Z,13.25
2023-03-16T14:22:19.364Z,13.28
2023-03-16T14:24:55.053Z,13.30
2023-03-16T14:27:30.428Z,13.28
2023-03-16T14:30:01.920Z,13.23
2023-03-16T14:32:31.828Z,13.31
2023-03-16T14:35:15.129Z,13.30
2023-03-16T14:37:43.610Z,12.89
2023-03-16T14:40:29.491Z,12.96
2023-03-16T14:42:59.305Z,13.41
2023-03-16T14:45:33.031Z,13.68
2023-03-16T14:48:07.088Z,13.76
2023-03-16T14:50:35.700Z,14.12
2023-03-16T14:53:04.190Z,14.32
2023-03-16T14:55:33.302Z,14.16
2023-03-16T14:58:00.890Z,14.30
2023-03-16T15:00:33.010Z,14.78
2023-03-16T15:03:08.060Z,14.42
2023-03-16T15:05:38.916Z,14.52
2023-03-16T15:08:10.688Z,14.61
2023-03-16T15:10:40.246Z,14.42
2023-03-16T15:13:16.146Z,14.66
2023-03-16T15:15:44.096Z,14.59
2023-03-16T15:18:12.053Z,14.93
2023-03-16T15:20:42.220Z,15.02
2023-03-16T15:23:15.056Z,15.14
2023-03-16T15:25:45.935Z,14.74
2023-03-16T15:28:17.247Z,14.79
2023-03-16T15:30:46.162Z,14.76
2023-03-16T15:33:14.834Z,14.81
2023-03-16T15:35:43.112Z,15.11
2023-03-16T15:38:16.518Z,15.04
2023-03-16T15:40:47.799Z,14.65
2023-03-16T15:43:17.961Z,14.92
2023-03-16T15:45:47.114Z,14.90
2023-03-16T15:48:15.213Z,14.87
2023-03-16T15:50:54.100Z,14.79
2023-03-16T15:53:30.798Z,14.59
2023-03-16T15:56:04.181Z,14.40
2023-03-16T15:58:33.504Z,14.30
2023-03-16T16:01:02.857Z,13.99
2023-03-16T16:03:31.008Z,13.87
2023-03-16T16:05:59.462Z,14.11
2023-03-16T16:08:27.201Z,14.28
2023-03-16T16:10:55.090Z,14.31
2023-03-16T16:13:37.442Z,14.37
2023-03-16T16:16:06.833Z,14.23
2023-03-16T16:18:37.319Z,14.08
2023-03-16T16:21:07.504Z,14.00
2023-03-16T16:23:37.049Z,14.08
2023-03-16T16:26:09.246Z,13.82
2023-03-16T16:28:38.172Z,13.59
2023-03-16T16:31:13.774Z,13.30
2023-03-16T16:33:41.671Z,12.91
2023-03-16T16:36:15.078Z,12.65
2023-03-16T16:38:42.691Z,12.39
2023-03-16T16:41:11.628Z,11.99
2023-03-16T16:43:43.742Z,11.91
2023-03-16T16:46:15.403Z,11.65
2023-03-16T16:48:46.249Z,11.56
2023-03-16T16:51:19.330Z,11.47
2023-03-16T16:53:47.597Z,11.18
2023-03-16T16:56:17.403Z,11.05
2023-03-16T16:58:46.818Z,10.98
2023-03-16T17:01:16.699Z,10.87
2023-03-16T17:03:44.415Z,10.73
2023-03-16T17:06:16.857Z,10.70
2023-03-16T17:08:44.852Z,10.61
2023-03-16T17:11:17.962Z,10.30
2023-03-16T17:13:47.541Z,10.24
2023-03-16T17:16:17.554Z,10.13
2023-03-16T17:18:46.167Z,10.03
2023-03-16T17:21:14.978Z,9.98
2023-03-16T17:23:43.084Z,9.88
2023-03-16T17:26:19.118Z,9.76
2023-03-16T17:28:52.179Z,9.65
2023-03-16T17:31:23.297Z,9.56
2023-03-16T17:33:52.329Z,9.39
2023-03-16T17:36:21.238Z,9.36
2023-03-16T17:38:49.891Z,9.31
2023-03-16T17:41:23.874Z,9.25
2023-03-16T17:43:55.048Z,9.19
2023-03-16T17:46:25.104Z,9.09
2023-03-16T17:48:55.588Z,9.01
2023-03-16T17:51:25.553Z,8.95
2023-03-16T17:53:53.807Z,8.82
2023-03-16T17:56:25.677Z,8.70
2023-03-16T17:58:57.766Z,8.60
2023-03-16T18:01:29.074Z,8.50
2023-03-16T18:03:57.145Z,8.39
2023-03-16T18:06:27.392Z,8.31
2023-03-16T18:08:55.224Z,8.22
2023-03-16T18:11:25.404Z,8.13
2023-03-16T18:13:54.583Z,8.15
2023-03-16T18:16:28.205Z,8.20
2023-03-16T18:18:59.635Z,8.10
2023-03-16T18:21:28.366Z,7.99
2023-03-16T18:23:55.958Z,7.87
2023-03-16T18:26:24.544Z,7.75
2023-03-16T18:28:55.487Z,7.69
2023-03-16T18:31:26.351Z,7.75
2023-03-16T18:33:56.811Z,7.73
2023-03-16T18:36:28.599Z,7.73
2023-03-16T18:38:58.648Z,7.69
2023-03-16T18:41:28.069Z,7.66
2023-03-16T18:43:58.935Z,7.67
2023-03-16T18:46:29.071Z,7.61
2023-03-16T18:48:59.309Z,7.56
2023-03-16T18:51:27.977Z,7.49
2023-03-16T18:53:56.300Z,7.39
2023-03-16T18:56:25.409Z,7.31
2023-03-16T18:58:54.074Z,7.23
2023-03-16T19:01:26.472Z,7.16
2023-03-16T19:03:55.727Z,7.05
2023-03-16T19:06:27.316Z,6.92
2023-03-16T19:08:55.965Z,6.82
2023-03-16T19:11:23.577Z,6.76
2023-03-16T19:13:54.252Z,6.70
2023-03-16T19:16:24.314Z,6.67
2023-03-16T19:18:52.020Z,6.63
2023-03-16T19:21:22.858Z,6.61
2023-03-16T19:23:56.691Z,6.55
2023-03-16T19:26:25.126Z,6.51
2023-03-16T19:28:52.922Z,6.46
2023-03-16T19:31:22.898Z,6.41
2023-03-16T19:33:53.003Z,6.34
2023-03-16T19:36:24.714Z,6.28
2023-03-16T19:38:52.798Z,6.23
2023-03-16T19:41:26.876Z,6.20
2023-03-16T19:43:57.681Z,6.10
2023-03-16T19:46:27.114Z,6.07
2023-03-16T19:48:57.205Z,6.13
2023-03-16T19:51:28.910Z,6.12
2023-03-16T19:53:56.578Z,6.06
2023-03-16T19:56:26.745Z,5.99
2023-03-16T19:58:55.722Z,5.93
2023-03-16T20:01:30.379Z,5.86
2023-03-16T20:04:04.131Z,5.75
2023-03-16T20:06:33.199Z,5.66
2023-03-16T20:09:01.044Z,5.57
2023-03-16T20:11:30.750Z,5.50
2023-03-16T20:13:59.643Z,5.45
2023-03-16T20:16:30.288Z,5.40
2023-03-16T20:19:00.315Z,5.34
2023-03-16T20:21:30.472Z,5.29
2023-03-16T20:23:58.318Z,5.23
2023-03-16T20:26:30.433Z,5.21
2023-03-16T20:28:58.899Z,5.14
2023-03-16T20:31:31.207Z,5.10
2023-03-16T20:33:59.514Z,5.06
2023-03-16T20:36:28.753Z,5.00
2023-03-16T20:38:56.461Z,4.96
2023-03-16T20:41:27.993Z,4.92
2023-03-16T20:43:57.455Z,4.88
2023-03-16T20:46:27.864Z,4.86
2023-03-16T20:48:55.720Z,4.83
2023-03-16T20:51:24.611Z,4.80
2023-03-16T20:53:53.681Z,4.78
2023-03-16T20:56:23.093Z,4.76
2023-03-16T20:58:54.685Z,4.75
2023-03-16T21:01:25.673Z,4.74
2023-03-16T21:03:55.726Z,4.70
2023-03-16T21:06:25.377Z,4.66
2023-03-16T21:08:56.175Z,4.56
2023-03-16T21:11:25.900Z,4.47
2023-03-16T21:13:54.829Z,4.44
2023-03-16T21:16:22.776Z,4.41
2023-03-16T21:18:50.953Z,4.38
2023-03-16T21:21:20.432Z,4.35
2023-03-16T21:23:48.578Z,4.31
2023-03-16T21:26:20.584Z,4.28
2023-03-16T21:28:55.051Z,4.27
2023-03-16T21:31:23.457Z,4.23
2023-03-16T21:33:51.950Z,4.17
2023-03-16T21:36:21.812Z,4.12
2023-03-16T21:38:51.705Z,4.04
2023-03-16T21:41:21.000Z,4.03
2023-03-16T21:43:50.032Z,4.00
2023-03-16T21:46:19.436Z,3.97
2023-03-16T21:48:49.918Z,3.93
2023-03-16T21:51:19.318Z,3.87
2023-03-16T21:53:47.844Z,3.82
2023-03-16T21:56:17.352Z,3.65
2023-03-16T21:58:47.379Z,3.67
2023-03-16T22:01:23.484Z,3.63
2023-03-16T22:03:53.755Z,3.59
2023-03-16T22:06:22.009Z,3.57
2023-03-16T22:08:51.287Z,3.55
2023-03-16T22:11:21.418Z,3.56
2023-03-16T22:13:51.193Z,3.53
2023-03-16T22:16:21.066Z,3.48
2023-03-16T22:18:50.848Z,3.45
2023-03-16T22:21:29.172Z,3.43
2023-03-16T22:23:58.592Z,3.41
2023-03-16T22:26:27.680Z,3.37
2023-03-16T22:28:57.505Z,3.36
2023-03-16T22:31:31.830Z,3.36
2023-03-16T22:34:00.652Z,3.33
2023-03-16T22:36:28.753Z,3.29
2023-03-16T22:39:00.696Z,3.30
2023-03-16T22:41:30.305Z,3.26
2023-03-16T22:43:59.857Z,3.23
2023-03-16T22:46:28.896Z,3.20
2023-03-16T22:48:58.818Z,3.16
2023-03-16T22:51:29.624Z,3.11
2023-03-16T22:53:59.996Z,3.14
2023-03-16T22:56:28.364Z,3.13
2023-03-16T22:58:59.677Z,3.08
2023-03-16T23:01:33.502Z,3.02
2023-03-16T23:04:02.180Z,3.02
2023-03-16T23:06:32.274Z,3.01
2023-03-16T23:09:00.420Z,2.99
2023-03-16T23:11:30.823Z,2.99
2023-03-16T23:13:59.836Z,2.97
2023-03-16T23:16:34.093Z,2.94
2023-03-16T23:19:03.246Z,2.93
2023-03-16T23:21:31.784Z,2.90
2023-03-16T23:24:03.907Z,2.85
2023-03-16T23:26:32.799Z,2.81
2023-03-16T23:29:01.065Z,2.79
2023-03-16T23:31:30.646Z,2.77
2023-03-16T23:33:58.756Z,2.75
2023-03-16T23:36:27.246Z,2.70
2023-03-16T23:38:55.108Z,2.66
2023-03-16T23:41:25.752Z,2.64
2023-03-16T23:43:54.086Z,2.60
2023-03-16T23:46:24.577Z,2.60
2023-03-16T23:48:56.426Z,2.66
2023-03-16T23:51:28.263Z,2.68
2023-03-16T23:53:56.385Z,2.66
2023-03-16T23:56:26.146Z,2.62
2023-03-16T23:58:54.228Z,2.58
